sensor_id;sensor_type;location;lat;lon;timestamp;P1;durP1;ratioP1;P2;durP2;ratioP2
76712;SDS011;65640;43.154;25.658;2023-04-03T00:00:22;2.70;;;2.33;;
76712;SDS011;65640;43.154;25.658;2023-04-03T00:02:48;2.78;;;2.30;;
76712;SDS011;65640;43.154;25.658;2023-04-03T00:05:13;2.95;;;2.38;;
76712;SDS011;65640;43.154;25.658;2023-04-03T00:07:39;2.88;;;2.58;;
76712;SDS011;65640;43.154;25.658;2023-04-03T00:10:05;2.50;;;2.30;;
76712;SDS011;65640;43.154;25.658;2023-04-03T00:12:31;2.83;;;2.63;;
76712;SDS011;65640;43.154;25.658;2023-04-03T00:14:56;2.70;;;2.50;;
76712;SDS011;65640;43.154;25.658;2023-04-03T00:17:22;2.60;;;2.40;;
76712;SDS011;65640;43.154;25.658;2023-04-03T00:19:47;5.00;;;2.83;;
76712;SDS011;65640;43.154;25.658;2023-04-03T00:22:13;2.75;;;2.53;;
76712;SDS011;65640;43.154;25.658;2023-04-03T00:24:38;2.83;;;2.50;;
76712;SDS011;65640;43.154;25.658;2023-04-03T00:27:03;3.30;;;2.17;;
76712;SDS011;65640;43.154;25.658;2023-04-03T00:29:29;2.35;;;2.15;;
76712;SDS011;65640;43.154;25.658;2023-04-03T00:31:55;2.25;;;2.05;;
76712;SDS011;65640;43.154;25.658;2023-04-03T00:34:20;3.45;;;3.10;;
76712;SDS011;65640;43.154;25.658;2023-04-03T00:36:46;2.72;;;2.53;;
76712;SDS011;65640;43.154;25.658;2023-04-03T00:39:11;2.83;;;2.60;;
76712;SDS011;65640;43.154;25.658;2023-04-03T00:41:36;3.58;;;2.58;;
76712;SDS011;65640;43.154;25.658;2023-04-03T00:44:18;2.90;;;2.70;;
76712;SDS011;65640;43.154;25.658;2023-04-03T00:46:45;2.92;;;2.70;;
76712;SDS011;65640;43.154;25.658;2023-04-03T00:49:10;2.63;;;2.42;;
76712;SDS011;65640;43.154;25.658;2023-04-03T00:51:35;2.72;;;2.53;;
76712;SDS011;65640;43.154;25.658;2023-04-03T00:54:02;2.65;;;2.45;;
76712;SDS011;65640;43.154;25.658;2023-04-03T00:56:31;4.55;;;2.70;;
76712;SDS011;65640;43.154;25.658;2023-04-03T00:59:19;4.65;;;2.63;;
76712;SDS011;65640;43.154;25.658;2023-04-03T01:01:48;2.75;;;2.53;;
76712;SDS011;65640;43.154;25.658;2023-04-03T01:09:37;2.55;;;2.35;;
76712;SDS011;65640;43.154;25.658;2023-04-03T01:12:14;5.13;;;3.15;;
76712;SDS011;65640;43.154;25.658;2023-04-03T01:14:43;3.17;;;2.88;;
76712;SDS011;65640;43.154;25.658;2023-04-03T01:25:36;4.05;;;3.72;;
76712;SDS011;65640;43.154;25.658;2023-04-03T01:28:02;3.45;;;3.08;;
76712;SDS011;65640;43.154;25.658;2023-04-03T01:30:31;3.00;;;2.80;;
76712;SDS011;65640;43.154;25.658;2023-04-03T01:33:00;5.32;;;3.70;;
76712;SDS011;65640;43.154;25.658;2023-04-03T01:35:26;7.13;;;4.57;;
76712;SDS011;65640;43.154;25.658;2023-04-03T01:37:51;5.60;;;3.67;;
76712;SDS011;65640;43.154;25.658;2023-04-03T01:40:17;5.85;;;5.35;;
76712;SDS011;65640;43.154;25.658;2023-04-03T01:42:42;10.63;;;9.05;;
76712;SDS011;65640;43.154;25.658;2023-04-03T01:45:08;5.30;;;4.90;;
76712;SDS011;65640;43.154;25.658;2023-04-03T01:47:34;4.28;;;3.85;;
76712;SDS011;65640;43.154;25.658;2023-04-03T01:49:59;5.22;;;3.63;;
76712;SDS011;65640;43.154;25.658;2023-04-03T01:52:25;3.88;;;3.58;;
76712;SDS011;65640;43.154;25.658;2023-04-03T01:54:50;3.90;;;3.60;;
76712;SDS011;65640;43.154;25.658;2023-04-03T01:57:16;8.38;;;4.18;;
76712;SDS011;65640;43.154;25.658;2023-04-03T01:59:41;5.05;;;4.45;;
76712;SDS011;65640;43.154;25.658;2023-04-03T02:02:07;5.55;;;4.70;;
76712;SDS011;65640;43.154;25.658;2023-04-03T02:04:33;5.00;;;4.47;;
76712;SDS011;65640;43.154;25.658;2023-04-03T02:06:58;4.00;;;3.67;;
76712;SDS011;65640;43.154;25.658;2023-04-03T02:09:23;4.15;;;3.38;;
76712;SDS011;65640;43.154;25.658;2023-04-03T02:11:49;7.15;;;3.60;;
76712;SDS011;65640;43.154;25.658;2023-04-03T02:14:15;4.72;;;3.92;;
76712;SDS011;65640;43.154;25.658;2023-04-03T02:16:40;3.70;;;3.50;;
76712;SDS011;65640;43.154;25.658;2023-04-03T02:19:06;3.63;;;3.13;;
76712;SDS011;65640;43.154;25.658;2023-04-03T02:21:31;4.97;;;3.63;;
76712;SDS011;65640;43.154;25.658;2023-04-03T02:23:57;6.18;;;3.47;;
76712;SDS011;65640;43.154;25.658;2023-04-03T02:26:22;4.63;;;3.72;;
76712;SDS011;65640;43.154;25.658;2023-04-03T02:28:48;5.25;;;4.75;;
76712;SDS011;65640;43.154;25.658;2023-04-03T02:31:13;8.45;;;4.10;;
76712;SDS011;65640;43.154;25.658;2023-04-03T02:33:39;8.23;;;4.72;;
76712;SDS011;65640;43.154;25.658;2023-04-03T02:36:05;8.52;;;5.13;;
76712;SDS011;65640;43.154;25.658;2023-04-03T02:38:31;6.97;;;4.35;;
76712;SDS011;65640;43.154;25.658;2023-04-03T02:41:06;5.15;;;3.08;;
76712;SDS011;65640;43.154;25.658;2023-04-03T02:43:34;2.67;;;2.47;;
76712;SDS011;65640;43.154;25.658;2023-04-03T02:46:00;4.93;;;3.78;;
76712;SDS011;65640;43.154;25.658;2023-04-03T02:48:25;4.03;;;3.17;;
76712;SDS011;65640;43.154;25.658;2023-04-03T02:50:51;3.30;;;3.00;;
76712;SDS011;65640;43.154;25.658;2023-04-03T02:53:17;4.80;;;3.20;;
76712;SDS011;65640;43.154;25.658;2023-04-03T02:55:43;3.30;;;3.00;;
76712;SDS011;65640;43.154;25.658;2023-04-03T02:58:09;3.90;;;2.72;;
76712;SDS011;65640;43.154;25.658;2023-04-03T03:00:35;3.22;;;2.92;;
76712;SDS011;65640;43.154;25.658;2023-04-03T03:03:00;3.65;;;2.97;;
76712;SDS011;65640;43.154;25.658;2023-04-03T03:05:26;5.65;;;3.28;;
76712;SDS011;65640;43.154;25.658;2023-04-03T03:07:52;5.53;;;3.50;;
76712;SDS011;65640;43.154;25.658;2023-04-03T03:10:18;4.40;;;3.15;;
76712;SDS011;65640;43.154;25.658;2023-04-03T03:12:43;6.13;;;4.18;;
76712;SDS011;65640;43.154;25.658;2023-04-03T03:15:09;4.35;;;3.97;;
76712;SDS011;65640;43.154;25.658;2023-04-03T03:17:35;6.65;;;4.75;;
76712;SDS011;65640;43.154;25.658;2023-04-03T03:20:01;4.45;;;4.03;;
76712;SDS011;65640;43.154;25.658;2023-04-03T03:22:27;5.80;;;4.38;;
76712;SDS011;65640;43.154;25.658;2023-04-03T03:24:53;9.68;;;4.63;;
76712;SDS011;65640;43.154;25.658;2023-04-03T03:27:19;4.68;;;3.85;;
76712;SDS011;65640;43.154;25.658;2023-04-03T03:29:45;8.55;;;4.85;;
76712;SDS011;65640;43.154;25.658;2023-04-03T03:32:11;7.32;;;4.05;;
76712;SDS011;65640;43.154;25.658;2023-04-03T03:34:37;6.10;;;3.95;;
76712;SDS011;65640;43.154;25.658;2023-04-03T03:37:02;8.63;;;3.72;;
76712;SDS011;65640;43.154;25.658;2023-04-03T03:39:28;8.93;;;4.65;;
76712;SDS011;65640;43.154;25.658;2023-04-03T03:41:53;25.48;;;8.70;;
76712;SDS011;65640;43.154;25.658;2023-04-03T03:44:19;42.28;;;11.82;;
76712;SDS011;65640;43.154;25.658;2023-04-03T03:46:45;51.45;;;14.10;;
76712;SDS011;65640;43.154;25.658;2023-04-03T03:49:10;62.55;;;16.45;;
76712;SDS011;65640;43.154;25.658;2023-04-03T03:51:36;94.03;;;25.02;;
76712;SDS011;65640;43.154;25.658;2023-04-03T03:54:03;104.15;;;25.35;;
76712;SDS011;65640;43.154;25.658;2023-04-03T03:56:29;80.63;;;21.35;;
76712;SDS011;65640;43.154;25.658;2023-04-03T03:58:54;69.82;;;19.27;;
76712;SDS011;65640;43.154;25.658;2023-04-03T04:01:21;63.00;;;18.00;;
76712;SDS011;65640;43.154;25.658;2023-04-03T04:03:47;61.05;;;16.45;;
76712;SDS011;65640;43.154;25.658;2023-04-03T04:06:12;26.30;;;9.90;;
76712;SDS011;65640;43.154;25.658;2023-04-03T04:08:38;32.33;;;11.23;;
76712;SDS011;65640;43.154;25.658;2023-04-03T04:11:03;22.42;;;9.32;;
76712;SDS011;65640;43.154;25.658;2023-04-03T04:13:29;38.05;;;12.57;;
76712;SDS011;65640;43.154;25.658;2023-04-03T04:15:54;34.25;;;11.13;;
76712;SDS011;65640;43.154;25.658;2023-04-03T04:18:20;31.98;;;11.43;;
76712;SDS011;65640;43.154;25.658;2023-04-03T04:20:46;29.50;;;10.60;;
76712;SDS011;65640;43.154;25.658;2023-04-03T04:23:11;29.90;;;11.02;;
76712;SDS011;65640;43.154;25.658;2023-04-03T04:25:37;17.65;;;7.85;;
76712;SDS011;65640;43.154;25.658;2023-04-03T04:28:02;11.98;;;6.47;;
76712;SDS011;65640;43.154;25.658;2023-04-03T04:30:28;28.15;;;9.23;;
76712;SDS011;65640;43.154;25.658;2023-04-03T04:32:53;21.52;;;9.82;;
76712;SDS011;65640;43.154;25.658;2023-04-03T04:35:19;11.75;;;5.38;;
76712;SDS011;65640;43.154;25.658;2023-04-03T04:37:44;16.30;;;5.60;;
76712;SDS011;65640;43.154;25.658;2023-04-03T04:40:10;13.38;;;6.30;;
76712;SDS011;65640;43.154;25.658;2023-04-03T04:42:35;10.50;;;5.10;;
76712;SDS011;65640;43.154;25.658;2023-04-03T04:45:01;41.58;;;17.10;;
76712;SDS011;65640;43.154;25.658;2023-04-03T04:47:27;10.18;;;5.43;;
76712;SDS011;65640;43.154;25.658;2023-04-03T04:52:19;7.93;;;4.80;;
76712;SDS011;65640;43.154;25.658;2023-04-03T04:54:45;5.47;;;3.15;;
76712;SDS011;65640;43.154;25.658;2023-04-03T04:57:10;2.95;;;2.75;;
76712;SDS011;65640;43.154;25.658;2023-04-03T04:59:35;3.15;;;2.92;;
76712;SDS011;65640;43.154;25.658;2023-04-03T05:02:01;2.88;;;2.67;;
76712;SDS011;65640;43.154;25.658;2023-04-03T05:04:26;4.45;;;3.17;;
76712;SDS011;65640;43.154;25.658;2023-04-03T05:06:52;3.00;;;2.80;;
76712;SDS011;65640;43.154;25.658;2023-04-03T05:09:17;2.90;;;2.70;;
76712;SDS011;65640;43.154;25.658;2023-04-03T05:11:45;2.53;;;2.33;;
76712;SDS011;65640;43.154;25.658;2023-04-03T05:14:10;3.78;;;2.35;;
76712;SDS011;65640;43.154;25.658;2023-04-03T05:16:36;8.90;;;3.60;;
76712;SDS011;65640;43.154;25.658;2023-04-03T05:19:02;11.70;;;7.47;;
76712;SDS011;65640;43.154;25.658;2023-04-03T05:21:27;3.53;;;2.30;;
76712;SDS011;65640;43.154;25.658;2023-04-03T05:23:57;2.20;;;2.00;;
76712;SDS011;65640;43.154;25.658;2023-04-03T05:26:23;2.42;;;2.10;;
76712;SDS011;65640;43.154;25.658;2023-04-03T05:28:48;1.73;;;1.63;;
76712;SDS011;65640;43.154;25.658;2023-04-03T05:31:14;3.33;;;1.88;;
76712;SDS011;65640;43.154;25.658;2023-04-03T05:33:41;2.72;;;2.53;;
76712;SDS011;65640;43.154;25.658;2023-04-03T05:36:06;2.10;;;1.88;;
76712;SDS011;65640;43.154;25.658;2023-04-03T05:38:32;2.75;;;2.55;;
76712;SDS011;65640;43.154;25.658;2023-04-03T05:40:58;5.43;;;5.03;;
76712;SDS011;65640;43.154;25.658;2023-04-03T05:43:23;5.32;;;2.13;;
76712;SDS011;65640;43.154;25.658;2023-04-03T05:45:50;3.05;;;2.00;;
76712;SDS011;65640;43.154;25.658;2023-04-03T05:48:15;3.75;;;2.20;;
76712;SDS011;65640;43.154;25.658;2023-04-03T05:50:41;1.67;;;1.58;;
76712;SDS011;65640;43.154;25.658;2023-04-03T05:53:07;2.15;;;1.80;;
76712;SDS011;65640;43.154;25.658;2023-04-03T05:55:45;1.90;;;1.75;;
76712;SDS011;65640;43.154;25.658;2023-04-03T05:58:11;3.42;;;1.40;;
76712;SDS011;65640;43.154;25.658;2023-04-03T06:00:36;1.65;;;1.55;;
76712;SDS011;65640;43.154;25.658;2023-04-03T06:03:02;1.80;;;1.67;;
76712;SDS011;65640;43.154;25.658;2023-04-03T06:05:27;1.70;;;1.60;;
76712;SDS011;65640;43.154;25.658;2023-04-03T06:07:53;1.50;;;1.40;;
76712;SDS011;65640;43.154;25.658;2023-04-03T06:10:18;2.13;;;2.00;;
76712;SDS011;65640;43.154;25.658;2023-04-03T06:12:45;3.90;;;1.90;;
76712;SDS011;65640;43.154;25.658;2023-04-03T06:15:10;3.58;;;1.50;;
76712;SDS011;65640;43.154;25.658;2023-04-03T06:17:36;5.88;;;1.75;;
76712;SDS011;65640;43.154;25.658;2023-04-03T06:20:03;1.90;;;1.80;;
76712;SDS011;65640;43.154;25.658;2023-04-03T06:22:29;2.10;;;2.00;;
76712;SDS011;65640;43.154;25.658;2023-04-03T06:24:55;3.10;;;2.00;;
76712;SDS011;65640;43.154;25.658;2023-04-03T06:27:21;2.30;;;1.92;;
76712;SDS011;65640;43.154;25.658;2023-04-03T06:29:46;2.40;;;2.30;;
76712;SDS011;65640;43.154;25.658;2023-04-03T06:34:39;3.15;;;2.78;;
76712;SDS011;65640;43.154;25.658;2023-04-03T06:37:04;2.72;;;2.28;;
76712;SDS011;65640;43.154;25.658;2023-04-03T06:39:30;3.78;;;2.30;;
76712;SDS011;65640;43.154;25.658;2023-04-03T06:41:55;3.38;;;2.33;;
76712;SDS011;65640;43.154;25.658;2023-04-03T06:44:21;3.90;;;2.78;;
76712;SDS011;65640;43.154;25.658;2023-04-03T06:46:46;3.17;;;2.53;;
76712;SDS011;65640;43.154;25.658;2023-04-03T06:49:12;2.97;;;2.60;;
76712;SDS011;65640;43.154;25.658;2023-04-03T06:51:37;4.03;;;2.53;;
76712;SDS011;65640;43.154;25.658;2023-04-03T06:54:03;4.47;;;2.70;;
76712;SDS011;65640;43.154;25.658;2023-04-03T06:56:30;2.90;;;2.70;;
76712;SDS011;65640;43.154;25.658;2023-04-03T06:58:56;3.25;;;2.95;;
76712;SDS011;65640;43.154;25.658;2023-04-03T07:01:26;5.90;;;3.58;;
76712;SDS011;65640;43.154;25.658;2023-04-03T07:03:52;3.78;;;3.25;;
76712;SDS011;65640;43.154;25.658;2023-04-03T07:06:18;5.05;;;3.30;;
76712;SDS011;65640;43.154;25.658;2023-04-03T07:08:44;3.45;;;2.60;;
76712;SDS011;65640;43.154;25.658;2023-04-03T07:11:11;3.70;;;2.70;;
76712;SDS011;65640;43.154;25.658;2023-04-03T07:13:37;2.67;;;2.47;;
76712;SDS011;65640;43.154;25.658;2023-04-03T07:16:03;2.65;;;2.28;;
76712;SDS011;65640;43.154;25.658;2023-04-03T07:18:30;4.07;;;2.60;;
76712;SDS011;65640;43.154;25.658;2023-04-03T07:20:56;3.95;;;2.60;;
76712;SDS011;65640;43.154;25.658;2023-04-03T07:23:22;2.30;;;2.13;;
76712;SDS011;65640;43.154;25.658;2023-04-03T07:25:49;4.22;;;2.10;;
76712;SDS011;65640;43.154;25.658;2023-04-03T07:28:16;6.93;;;2.35;;
76712;SDS011;65640;43.154;25.658;2023-04-03T07:30:44;4.70;;;2.15;;
76712;SDS011;65640;43.154;25.658;2023-04-03T07:35:35;4.22;;;2.53;;
76712;SDS011;65640;43.154;25.658;2023-04-03T07:38:01;2.28;;;2.08;;
76712;SDS011;65640;43.154;25.658;2023-04-03T07:40:26;2.53;;;2.33;;
76712;SDS011;65640;43.154;25.658;2023-04-03T07:42:51;3.53;;;2.10;;
76712;SDS011;65640;43.154;25.658;2023-04-03T07:45:17;3.75;;;2.33;;
76712;SDS011;65640;43.154;25.658;2023-04-03T07:47:43;1.77;;;1.50;;
76712;SDS011;65640;43.154;25.658;2023-04-03T07:50:09;2.35;;;1.52;;
76712;SDS011;65640;43.154;25.658;2023-04-03T07:52:35;1.30;;;1.20;;
76712;SDS011;65640;43.154;25.658;2023-04-03T07:55:00;1.10;;;1.00;;
76712;SDS011;65640;43.154;25.658;2023-04-03T07:57:26;1.60;;;1.08;;
76712;SDS011;65640;43.154;25.658;2023-04-03T07:59:51;0.80;;;0.60;;
76712;SDS011;65640;43.154;25.658;2023-04-03T08:02:17;0.90;;;0.47;;
76712;SDS011;65640;43.154;25.658;2023-04-03T08:04:42;2.05;;;0.57;;
76712;SDS011;65640;43.154;25.658;2023-04-03T08:07:07;0.77;;;0.57;;
76712;SDS011;65640;43.154;25.658;2023-04-03T08:09:33;0.52;;;0.43;;
76712;SDS011;65640;43.154;25.658;2023-04-03T08:11:58;0.40;;;0.40;;
76712;SDS011;65640;43.154;25.658;2023-04-03T08:14:24;0.47;;;0.45;;
76712;SDS011;65640;43.154;25.658;2023-04-03T08:16:49;0.50;;;0.50;;
76712;SDS011;65640;43.154;25.658;2023-04-03T08:19:15;0.57;;;0.35;;
76712;SDS011;65640;43.154;25.658;2023-04-03T08:21:43;0.30;;;0.30;;
76712;SDS011;65640;43.154;25.658;2023-04-03T08:24:08;0.50;;;0.50;;
76712;SDS011;65640;43.154;25.658;2023-04-03T08:26:35;0.30;;;0.30;;
76712;SDS011;65640;43.154;25.658;2023-04-03T08:29:01;0.30;;;0.30;;
76712;SDS011;65640;43.154;25.658;2023-04-03T08:31:27;0.70;;;0.40;;
76712;SDS011;65640;43.154;25.658;2023-04-03T08:33:52;0.90;;;0.30;;
76712;SDS011;65640;43.154;25.658;2023-04-03T08:36:19;0.40;;;0.40;;
76712;SDS011;65640;43.154;25.658;2023-04-03T08:38:47;0.65;;;0.40;;
76712;SDS011;65640;43.154;25.658;2023-04-03T08:49:37;0.50;;;0.40;;
76712;SDS011;65640;43.154;25.658;2023-04-03T08:52:12;1.90;;;1.23;;
76712;SDS011;65640;43.154;25.658;2023-04-03T08:54:53;0.88;;;0.40;;
76712;SDS011;65640;43.154;25.658;2023-04-03T08:59:55;0.47;;;0.45;;
76712;SDS011;65640;43.154;25.658;2023-04-03T09:04:51;0.38;;;0.30;;
76712;SDS011;65640;43.154;25.658;2023-04-03T09:07:22;1.52;;;0.50;;
76712;SDS011;65640;43.154;25.658;2023-04-03T09:09:55;0.57;;;0.40;;
76712;SDS011;65640;43.154;25.658;2023-04-03T09:12:25;0.50;;;0.50;;
76712;SDS011;65640;43.154;25.658;2023-04-03T09:23:50;1.00;;;0.95;;
76712;SDS011;65640;43.154;25.658;2023-04-03T09:26:28;0.30;;;0.30;;
76712;SDS011;65640;43.154;25.658;2023-04-03T09:29:01;0.55;;;0.45;;
76712;SDS011;65640;43.154;25.658;2023-04-03T09:31:35;1.25;;;0.57;;
76712;SDS011;65640;43.154;25.658;2023-04-03T09:34:04;0.40;;;0.40;;
76712;SDS011;65640;43.154;25.658;2023-04-03T09:36:43;1.13;;;0.50;;
76712;SDS011;65640;43.154;25.658;2023-04-03T09:39:12;0.30;;;0.30;;
76712;SDS011;65640;43.154;25.658;2023-04-03T09:41:54;0.40;;;0.30;;
76712;SDS011;65640;43.154;25.658;2023-04-03T09:44:21;0.60;;;0.60;;
76712;SDS011;65640;43.154;25.658;2023-04-03T09:46:48;0.60;;;0.60;;
76712;SDS011;65640;43.154;25.658;2023-04-03T09:49:14;0.45;;;0.45;;
76712;SDS011;65640;43.154;25.658;2023-04-03T09:51:39;0.60;;;0.60;;
76712;SDS011;65640;43.154;25.658;2023-04-03T09:56:52;0.38;;;0.38;;
76712;SDS011;65640;43.154;25.658;2023-04-03T09:59:20;0.55;;;0.30;;
76712;SDS011;65640;43.154;25.658;2023-04-03T10:01:57;0.32;;;0.32;;
76712;SDS011;65640;43.154;25.658;2023-04-03T10:04:45;0.30;;;0.30;;
76712;SDS011;65640;43.154;25.658;2023-04-03T10:07:31;0.93;;;0.75;;
76712;SDS011;65640;43.154;25.658;2023-04-03T10:10:22;1.02;;;0.43;;
76712;SDS011;65640;43.154;25.658;2023-04-03T10:13:04;0.75;;;0.45;;
76712;SDS011;65640;43.154;25.658;2023-04-03T10:15:41;0.38;;;0.38;;
76712;SDS011;65640;43.154;25.658;2023-04-03T10:20:59;0.85;;;0.50;;
76712;SDS011;65640;43.154;25.658;2023-04-03T10:26:08;0.95;;;0.82;;
76712;SDS011;65640;43.154;25.658;2023-04-03T10:31:25;0.80;;;0.60;;
76712;SDS011;65640;43.154;25.658;2023-04-03T10:34:01;1.25;;;0.40;;
76712;SDS011;65640;43.154;25.658;2023-04-03T10:36:34;0.65;;;0.60;;
76712;SDS011;65640;43.154;25.658;2023-04-03T10:39:32;1.02;;;0.40;;
76712;SDS011;65640;43.154;25.658;2023-04-03T10:42:14;0.30;;;0.30;;
76712;SDS011;65640;43.154;25.658;2023-04-03T10:45:30;0.50;;;0.50;;
76712;SDS011;65640;43.154;25.658;2023-04-03T10:56:42;0.50;;;0.50;;
76712;SDS011;65640;43.154;25.658;2023-04-03T10:59:26;0.90;;;0.52;;
76712;SDS011;65640;43.154;25.658;2023-04-03T11:02:00;1.63;;;0.60;;
76712;SDS011;65640;43.154;25.658;2023-04-03T11:04:34;0.60;;;0.60;;
76712;SDS011;65640;43.154;25.658;2023-04-03T11:07:14;3.30;;;1.88;;
76712;SDS011;65640;43.154;25.658;2023-04-03T11:09:47;0.82;;;0.60;;
76712;SDS011;65640;43.154;25.658;2023-04-03T11:12:41;2.85;;;0.60;;
76712;SDS011;65640;43.154;25.658;2023-04-03T11:15:20;0.52;;;0.52;;
76712;SDS011;65640;43.154;25.658;2023-04-03T11:17:51;2.22;;;0.40;;
76712;SDS011;65640;43.154;25.658;2023-04-03T11:20:30;0.47;;;0.40;;
76712;SDS011;65640;43.154;25.658;2023-04-03T11:25:53;0.20;;;0.20;;
76712;SDS011;65640;43.154;25.658;2023-04-03T11:28:24;0.20;;;0.13;;
76712;SDS011;65640;43.154;25.658;2023-04-03T11:31:02;1.02;;;0.30;;
76712;SDS011;65640;43.154;25.658;2023-04-03T11:36:00;0.85;;;0.40;;
76712;SDS011;65640;43.154;25.658;2023-04-03T11:38:30;0.68;;;0.28;;
76712;SDS011;65640;43.154;25.658;2023-04-03T11:41:01;1.45;;;0.50;;
76712;SDS011;65640;43.154;25.658;2023-04-03T11:43:30;0.70;;;0.32;;
76712;SDS011;65640;43.154;25.658;2023-04-03T11:58:35;3.25;;;2.10;;
76712;SDS011;65640;43.154;25.658;2023-04-03T12:01:10;1.88;;;1.50;;
76712;SDS011;65640;43.154;25.658;2023-04-03T12:03:57;1.30;;;0.57;;
76712;SDS011;65640;43.154;25.658;2023-04-03T12:08:57;0.50;;;0.50;;
76712;SDS011;65640;43.154;25.658;2023-04-03T12:11:30;2.95;;;0.80;;
76712;SDS011;65640;43.154;25.658;2023-04-03T12:16:22;0.55;;;0.38;;
76712;SDS011;65640;43.154;25.658;2023-04-03T12:21:14;0.95;;;0.50;;
76712;SDS011;65640;43.154;25.658;2023-04-03T12:26:32;0.70;;;0.68;;
76712;SDS011;65640;43.154;25.658;2023-04-03T12:29:01;0.95;;;0.90;;
76712;SDS011;65640;43.154;25.658;2023-04-03T12:31:33;1.63;;;0.77;;
76712;SDS011;65640;43.154;25.658;2023-04-03T12:34:34;2.95;;;0.60;;
76712;SDS011;65640;43.154;25.658;2023-04-03T12:37:07;2.53;;;0.50;;
76712;SDS011;65640;43.154;25.658;2023-04-03T12:47:35;0.55;;;0.50;;
76712;SDS011;65640;43.154;25.658;2023-04-03T12:50:03;0.70;;;0.57;;
76712;SDS011;65640;43.154;25.658;2023-04-03T12:54:55;0.50;;;0.47;;
76712;SDS011;65640;43.154;25.658;2023-04-03T12:57:25;1.48;;;0.80;;
76712;SDS011;65640;43.154;25.658;2023-04-03T12:59:52;1.05;;;0.73;;
76712;SDS011;65640;43.154;25.658;2023-04-03T13:04:53;1.92;;;0.52;;
76712;SDS011;65640;43.154;25.658;2023-04-03T13:07:24;1.05;;;0.60;;
76712;SDS011;65640;43.154;25.658;2023-04-03T13:15:15;9.57;;;5.72;;
76712;SDS011;65640;43.154;25.658;2023-04-03T13:17:47;2.05;;;1.20;;
76712;SDS011;65640;43.154;25.658;2023-04-03T13:20:22;1.30;;;0.95;;
76712;SDS011;65640;43.154;25.658;2023-04-03T13:22:57;2.25;;;1.00;;
76712;SDS011;65640;43.154;25.658;2023-04-03T13:25:35;12.32;;;11.02;;
76712;SDS011;65640;43.154;25.658;2023-04-03T13:28:04;4.10;;;1.83;;
76712;SDS011;65640;43.154;25.658;2023-04-03T13:30:35;4.60;;;0.95;;
76712;SDS011;65640;43.154;25.658;2023-04-03T13:33:06;6.15;;;4.20;;
76712;SDS011;65640;43.154;25.658;2023-04-03T13:35:45;0.50;;;0.50;;
76712;SDS011;65640;43.154;25.658;2023-04-03T13:43:26;0.30;;;0.30;;
76712;SDS011;65640;43.154;25.658;2023-04-03T13:46:03;0.60;;;0.60;;
76712;SDS011;65640;43.154;25.658;2023-04-03T13:48:39;0.55;;;0.50;;
76712;SDS011;65640;43.154;25.658;2023-04-03T13:53:58;3.03;;;2.80;;
76712;SDS011;65640;43.154;25.658;2023-04-03T14:01:23;2.95;;;1.00;;
76712;SDS011;65640;43.154;25.658;2023-04-03T14:03:57;1.55;;;1.17;;
76712;SDS011;65640;43.154;25.658;2023-04-03T14:06:24;1.65;;;1.52;;
76712;SDS011;65640;43.154;25.658;2023-04-03T14:08:51;2.55;;;2.13;;
76712;SDS011;65640;43.154;25.658;2023-04-03T14:11:20;5.55;;;3.85;;
76712;SDS011;65640;43.154;25.658;2023-04-03T14:13:48;3.20;;;2.75;;
76712;SDS011;65640;43.154;25.658;2023-04-03T14:16:16;4.90;;;2.53;;
76712;SDS011;65640;43.154;25.658;2023-04-03T14:18:44;3.05;;;1.25;;
76712;SDS011;65640;43.154;25.658;2023-04-03T14:21:12;1.67;;;0.93;;
76712;SDS011;65640;43.154;25.658;2023-04-03T14:23:38;1.30;;;1.20;;
76712;SDS011;65640;43.154;25.658;2023-04-03T14:26:08;1.30;;;1.20;;
76712;SDS011;65640;43.154;25.658;2023-04-03T14:28:46;1.60;;;1.50;;
76712;SDS011;65640;43.154;25.658;2023-04-03T14:31:13;1.40;;;1.30;;
76712;SDS011;65640;43.154;25.658;2023-04-03T14:33:40;3.03;;;1.92;;
76712;SDS011;65640;43.154;25.658;2023-04-03T14:36:17;2.28;;;1.92;;
76712;SDS011;65640;43.154;25.658;2023-04-03T14:38:45;2.75;;;2.55;;
76712;SDS011;65640;43.154;25.658;2023-04-03T14:41:12;2.13;;;2.00;;
76712;SDS011;65640;43.154;25.658;2023-04-03T14:43:39;3.72;;;1.45;;
76712;SDS011;65640;43.154;25.658;2023-04-03T14:46:05;7.47;;;4.18;;
76712;SDS011;65640;43.154;25.658;2023-04-03T14:48:38;5.80;;;4.60;;
76712;SDS011;65640;43.154;25.658;2023-04-03T14:51:03;4.97;;;3.75;;
76712;SDS011;65640;43.154;25.658;2023-04-03T14:53:29;9.43;;;4.88;;
76712;SDS011;65640;43.154;25.658;2023-04-03T14:55:55;6.18;;;4.43;;
76712;SDS011;65640;43.154;25.658;2023-04-03T14:58:21;5.00;;;2.33;;
76712;SDS011;65640;43.154;25.658;2023-04-03T15:00:46;2.90;;;2.70;;
76712;SDS011;65640;43.154;25.658;2023-04-03T15:03:13;1.77;;;1.67;;
76712;SDS011;65640;43.154;25.658;2023-04-03T15:05:41;2.40;;;2.20;;
76712;SDS011;65640;43.154;25.658;2023-04-03T15:08:23;2.22;;;1.55;;
76712;SDS011;65640;43.154;25.658;2023-04-03T15:10:51;2.95;;;1.52;;
76712;SDS011;65640;43.154;25.658;2023-04-03T15:13:21;2.42;;;2.33;;
76712;SDS011;65640;43.154;25.658;2023-04-03T15:15:47;5.25;;;4.28;;
76712;SDS011;65640;43.154;25.658;2023-04-03T15:18:15;5.05;;;4.75;;
76712;SDS011;65640;43.154;25.658;2023-04-03T15:20:44;2.88;;;2.67;;
76712;SDS011;65640;43.154;25.658;2023-04-03T15:23:12;3.00;;;2.72;;
76712;SDS011;65640;43.154;25.658;2023-04-03T15:25:40;2.85;;;2.58;;
76712;SDS011;65640;43.154;25.658;2023-04-03T15:28:08;3.85;;;3.50;;
76712;SDS011;65640;43.154;25.658;2023-04-03T15:30:37;5.13;;;3.65;;
76712;SDS011;65640;43.154;25.658;2023-04-03T15:33:05;4.25;;;2.72;;
76712;SDS011;65640;43.154;25.658;2023-04-03T15:35:30;3.22;;;3.03;;
76712;SDS011;65640;43.154;25.658;2023-04-03T15:37:56;5.18;;;4.15;;
76712;SDS011;65640;43.154;25.658;2023-04-03T15:40:21;31.05;;;14.15;;
76712;SDS011;65640;43.154;25.658;2023-04-03T15:42:47;34.92;;;17.35;;
76712;SDS011;65640;43.154;25.658;2023-04-03T15:45:12;51.47;;;23.52;;
76712;SDS011;65640;43.154;25.658;2023-04-03T15:47:38;55.15;;;25.20;;
76712;SDS011;65640;43.154;25.658;2023-04-03T15:50:04;55.28;;;25.52;;
76712;SDS011;65640;43.154;25.658;2023-04-03T15:52:31;14.85;;;9.73;;
76712;SDS011;65640;43.154;25.658;2023-04-03T15:54:57;10.98;;;8.57;;
76712;SDS011;65640;43.154;25.658;2023-04-03T15:57:22;8.15;;;7.15;;
76712;SDS011;65640;43.154;25.658;2023-04-03T15:59:51;7.60;;;6.03;;
76712;SDS011;65640;43.154;25.658;2023-04-03T16:02:16;9.45;;;7.18;;
76712;SDS011;65640;43.154;25.658;2023-04-03T16:04:41;30.27;;;14.70;;
76712;SDS011;65640;43.154;25.658;2023-04-03T16:07:07;31.42;;;16.17;;
76712;SDS011;65640;43.154;25.658;2023-04-03T16:09:32;51.42;;;21.15;;
76712;SDS011;65640;43.154;25.658;2023-04-03T16:11:59;42.33;;;21.13;;
76712;SDS011;65640;43.154;25.658;2023-04-03T16:14:25;15.75;;;9.60;;
76712;SDS011;65640;43.154;25.658;2023-04-03T16:16:52;8.75;;;6.28;;
76712;SDS011;65640;43.154;25.658;2023-04-03T16:19:18;10.10;;;6.93;;
76712;SDS011;65640;43.154;25.658;2023-04-03T16:24:11;20.70;;;12.30;;
76712;SDS011;65640;43.154;25.658;2023-04-03T16:26:37;12.07;;;9.75;;
76712;SDS011;65640;43.154;25.658;2023-04-03T16:29:02;11.88;;;8.50;;
76712;SDS011;65640;43.154;25.658;2023-04-03T16:31:27;7.28;;;6.47;;
76712;SDS011;65640;43.154;25.658;2023-04-03T16:33:54;8.38;;;7.38;;
76712;SDS011;65640;43.154;25.658;2023-04-03T16:36:21;13.10;;;9.23;;
76712;SDS011;65640;43.154;25.658;2023-04-03T16:38:46;13.50;;;8.88;;
76712;SDS011;65640;43.154;25.658;2023-04-03T16:41:11;8.95;;;7.47;;